Time;durP1;ratioP1;P1;durP2;ratioP2;P2;SDS_P1;SDS_P2;PMS_P1;PMS_P2;Temp;Humidity;BMP_temperature;BMP_pressure;BME280_temperature;BME280_humidity;BME280_pressure;Samples;Min_cycle;Max_cycle;Signal;HPM_P1;HPM_P2
2021/01/26 00:01:00;;;;;;;26.60;16.97;;;4.50;99.90;;;;;;4880137;29;20797;-63
2021/01/26 00:03:25;;;;;;;28.50;15.40;;;4.50;99.90;;;;;;4880096;29;20849;-64
2021/01/26 00:05:51;;;;;;;24.40;15.50;;;4.50;99.90;;;;;;4880175;29;20314;-64
2021/01/26 00:08:18;;;;;;;20.30;14.30;;;4.50;99.90;;;;;;4880056;29;20560;-63
2021/01/26 00:10:43;;;;;;;21.07;13.47;;;4.60;99.90;;;;;;4879875;29;20523;-63
2021/01/26 00:13:10;;;;;;;22.07;14.30;;;4.50;99.90;;;;;;4879806;29;20567;-63
2021/01/26 00:15:36;;;;;;;28.70;14.27;;;4.50;99.90;;;;;;4879861;29;20186;-63
2021/01/26 00:18:02;;;;;;;20.83;15.23;;;4.50;99.90;;;;;;4879932;29;20813;-63
2021/01/26 00:20:28;;;;;;;21.83;13.67;;;4.50;99.90;;;;;;4879808;29;20992;-63
2021/01/26 00:22:54;;;;;;;27.17;15.90;;;4.50;99.90;;;;;;4879869;29;20437;-63
2021/01/26 00:25:24;;;;;;;24.93;15.23;;;4.50;99.90;;;;;;4879609;29;20581;-62
2021/01/26 00:27:50;;;;;;;21.40;13.87;;;4.50;99.90;;;;;;4879862;29;20450;-66
2021/01/26 00:30:21;;;;;;;30.37;14.93;;;4.40;99.90;;;;;;4879698;29;20465;-64
2021/01/26 00:32:46;;;;;;;20.07;15.10;;;4.50;99.90;;;;;;4879795;29;20539;-64
2021/01/26 00:35:14;;;;;;;22.40;15.07;;;4.50;99.90;;;;;;4879189;29;20438;-63
2021/01/26 00:37:40;;;;;;;23.50;15.53;;;4.50;99.90;;;;;;4879582;29;20189;-64
2021/01/26 00:40:07;;;;;;;26.50;15.53;;;4.50;99.90;;;;;;4879681;29;20428;-63
2021/01/26 00:42:33;;;;;;;20.93;14.03;;;4.50;99.90;;;;;;4879248;29;20468;-63
2021/01/26 00:44:58;;;;;;;22.47;15.50;;;4.60;99.90;;;;;;4879479;29;20428;-63
2021/01/26 00:47:24;;;;;;;29.20;15.93;;;4.60;99.90;;;;;;4879476;29;20188;-63
2021/01/26 00:49:49;;;;;;;23.43;15.50;;;4.50;99.90;;;;;;4879460;29;20192;-65
2021/01/26 00:52:15;;;;;;;24.30;14.77;;;4.60;99.90;;;;;;4879453;29;20216;-64
2021/01/26 00:54:40;;;;;;;19.97;14.37;;;4.50;99.90;;;;;;4879403;29;20181;-64
2021/01/26 00:57:06;;;;;;;18.97;13.63;;;4.40;99.90;;;;;;4879466;29;20218;-64
2021/01/26 00:59:32;;;;;;;17.70;13.43;;;4.50;99.90;;;;;;4879331;29;20182;-64
2021/01/26 01:01:58;;;;;;;25.80;18.10;;;4.60;99.90;;;;;;4878490;29;20430;-64
2021/01/26 01:04:23;;;;;;;30.80;15.90;;;4.60;99.90;;;;;;4879267;29;20181;-64
2021/01/26 01:06:49;;;;;;;17.70;13.60;;;4.80;99.90;;;;;;4879414;29;20184;-64
2021/01/26 01:09:14;;;;;;;22.63;14.53;;;4.80;99.90;;;;;;4879403;29;20583;-64
2021/01/26 01:11:40;;;;;;;19.97;14.93;;;4.80;99.90;;;;;;4878016;29;20185;-64
2021/01/26 01:14:06;;;;;;;20.00;14.10;;;4.70;99.90;;;;;;4879169;29;20213;-64
2021/01/26 01:16:31;;;;;;;17.70;13.60;;;4.70;99.90;;;;;;4879176;29;20180;-64
2021/01/26 01:18:57;;;;;;;25.50;14.83;;;4.60;99.90;;;;;;4879315;29;20234;-64
2021/01/26 01:21:22;;;;;;;17.50;14.00;;;4.70;99.90;;;;;;4878076;29;20267;-64
2021/01/26 01:23:48;;;;;;;18.17;13.50;;;4.70;99.90;;;;;;4879093;29;20275;-63
2021/01/26 01:26:13;;;;;;;18.00;15.27;;;4.60;99.90;;;;;;4879015;29;20319;-63
2021/01/26 01:28:39;;;;;;;21.90;14.63;;;4.60;99.90;;;;;;4879125;29;20529;-64
2021/01/26 01:31:04;;;;;;;18.77;13.27;;;4.60;99.90;;;;;;4879171;29;20184;-63
2021/01/26 01:33:30;;;;;;;18.90;13.17;;;4.60;99.90;;;;;;4879000;29;20232;-64
2021/01/26 01:35:56;;;;;;;19.73;13.83;;;4.50;99.90;;;;;;4879173;29;20192;-63
2021/01/26 01:38:21;;;;;;;14.97;11.30;;;4.50;99.90;;;;;;4879096;29;20188;-63
2021/01/26 01:40:50;;;;;;;16.73;13.27;;;4.60;99.90;;;;;;4879105;29;20642;-63
2021/01/26 01:43:16;;;;;;;19.20;12.87;;;4.40;99.90;;;;;;4879003;29;20694;-63
2021/01/26 01:45:41;;;;;;;20.30;13.20;;;4.40;99.90;;;;;;4879490;29;20527;-64
2021/01/26 01:48:19;;;;;;;18.60;13.70;;;4.40;99.90;;;;;;4882535;29;20191;-64
2021/01/26 01:51:15;;;;;;;19.07;12.93;;;4.50;99.90;;;;;;4882481;29;20654;-64
2021/01/26 01:54:02;;;;;;;17.50;13.37;;;4.50;99.90;;;;;;4880277;29;20651;-64
2021/01/26 01:56:51;;;;;;;21.87;13.67;;;4.50;99.90;;;;;;4882388;29;20460;-63
2021/01/26 01:59:23;;;;;;;19.80;13.77;;;4.50;99.90;;;;;;4882315;29;20850;-63
2021/01/26 02:01:49;;;;;;;20.70;13.40;;;4.60;99.90;;;;;;4882406;29;20428;-63
2021/01/26 02:04:18;;;;;;;20.90;13.40;;;4.50;99.90;;;;;;4882261;29;20766;-63
2021/01/26 02:06:46;;;;;;;19.77;14.33;;;4.50;99.90;;;;;;4882150;29;20473;-63
2021/01/26 02:09:18;;;;;;;21.83;14.70;;;4.50;99.90;;;;;;4882179;29;20433;-63
2021/01/26 02:11:45;;;;;;;21.30;14.30;;;4.50;99.90;;;;;;4882052;29;20424;-63
2021/01/26 02:14:12;;;;;;;26.33;16.40;;;4.50;99.90;;;;;;4881963;29;20960;-65
2021/01/26 02:17:09;;;;;;;20.37;13.23;;;4.60;99.90;;;;;;4881973;29;20472;-64
2021/01/26 02:19:59;;;;;;;18.30;12.93;;;4.70;99.90;;;;;;4881874;29;20444;-64
2021/01/26 02:23:01;;;;;;;20.33;12.53;;;4.60;99.90;;;;;;4881829;29;20953;-64
2021/01/26 06:32:25;;;;;;;9.30;5.23;;;5.70;99.90;;;;;;5298666;23;20526;-63
2021/01/26 06:35:01;;;;;;;19.43;5.47;;;5.70;99.90;;;;;;4949143;23;20500;-61
2021/01/26 06:37:38;;;;;;;14.00;5.40;;;5.70;99.90;;;;;;4938211;29;20436;-63
2021/01/26 06:40:27;;;;;;;9.37;5.90;;;5.70;99.90;;;;;;4938243;29;20431;-64
2021/01/26 06:43:11;;;;;;;7.00;5.63;;;5.70;99.90;;;;;;4938279;29;20433;-63
2021/01/26 06:46:10;;;;;;;10.97;5.50;;;5.70;99.90;;;;;;4938138;29;20433;-63
2021/01/26 06:48:49;;;;;;;8.43;5.47;;;5.80;99.90;;;;;;4938044;29;20554;-61
2021/01/26 06:55:02;;;;;;;10.50;6.10;;;5.80;99.90;;;;;;4938219;29;20435;-63
2021/01/26 06:57:47;;;;;;;12.00;6.73;;;5.80;99.90;;;;;;4938037;29;20435;-64
2021/01/26 07:04:08;;;;;;;13.23;7.93;;;5.80;99.90;;;;;;4938111;29;20468;-63
2021/01/26 07:06:52;;;;;;;9.03;7.40;;;5.80;99.90;;;;;;4938271;29;20427;-64
2021/01/26 07:12:55;;;;;;;11.77;7.80;;;5.70;99.90;;;;;;4937847;29;20451;-62
2021/01/26 07:18:54;;;;;;;16.63;8.87;;;5.80;99.90;;;;;;4938017;29;20705;-66
2021/01/26 07:21:49;;;;;;;10.33;8.90;;;5.80;99.90;;;;;;4937885;29;20408;-65
2021/01/26 07:24:42;;;;;;;12.80;9.23;;;5.90;99.90;;;;;;4928975;29;20461;-60
2021/01/26 07:30:38;;;;;;;17.53;8.97;;;5.80;99.90;;;;;;4937522;29;20414;-63
2021/01/26 07:33:35;;;;;;;16.53;9.60;;;5.80;99.90;;;;;;4937305;29;20551;-63
2021/01/26 07:36:20;;;;;;;16.60;8.50;;;5.80;99.90;;;;;;4937677;29;20474;-63
2021/01/26 07:39:01;;;;;;;14.50;10.50;;;5.80;99.90;;;;;;4937557;29;20435;-63
2021/01/26 07:41:41;;;;;;;11.90;9.37;;;5.90;99.90;;;;;;4937552;29;20425;-61
2021/01/26 07:44:18;;;;;;;18.23;8.60;;;5.90;99.90;;;;;;4937843;29;20418;-63
2021/01/26 07:46:50;;;;;;;18.13;9.13;;;6.00;99.90;;;;;;4937279;29;20471;-63
2021/01/26 07:49:28;;;;;;;11.43;10.23;;;6.00;99.90;;;;;;4937348;29;20464;-63
2021/01/26 07:51:57;;;;;;;13.10;9.37;;;6.00;99.90;;;;;;4937162;29;20415;-63
2021/01/26 07:54:40;;;;;;;14.77;9.33;;;5.90;99.90;;;;;;4937351;29;20483;-63
2021/01/26 07:57:06;;;;;;;13.03;9.30;;;5.90;99.90;;;;;;4937300;29;20446;-63
2021/01/26 07:59:35;;;;;;;15.43;9.00;;;5.90;99.90;;;;;;4936936;29;20971;-63
2021/01/26 08:02:05;;;;;;;13.00;9.33;;;5.90;99.90;;;;;;4937170;29;20179;-63
2021/01/26 08:04:39;;;;;;;11.50;8.80;;;6.00;99.90;;;;;;4937669;29;20433;-63
2021/01/26 08:07:06;;;;;;;16.20;9.30;;;6.00;99.90;;;;;;4937084;29;20457;-63
2021/01/26 08:09:40;;;;;;;14.57;9.30;;;6.00;99.90;;;;;;4937093;29;20427;-63
2021/01/26 08:12:35;;;;;;;17.57;9.10;;;6.00;99.90;;;;;;4936956;29;20434;-63
2021/01/26 08:15:26;;;;;;;11.30;9.37;;;6.10;99.90;;;;;;4928014;28;21018;-63
2021/01/26 08:21:29;;;;;;;13.23;8.70;;;5.90;99.90;;;;;;4936666;29;20838;-63
2021/01/26 08:24:08;;;;;;;12.93;9.93;;;6.00;99.90;;;;;;4936625;29;20484;-63
2021/01/26 08:26:33;;;;;;;22.70;9.77;;;6.00;99.90;;;;;;4936883;29;20414;-62
2021/01/26 08:32:27;;;;;;;14.07;8.40;;;6.00;99.90;;;;;;4936393;29;20281;-64
2021/01/26 08:38:44;;;;;;;10.60;7.13;;;6.00;99.90;;;;;;4936436;29;20480;-62
2021/01/26 08:41:10;;;;;;;9.57;6.80;;;6.00;99.90;;;;;;4936238;28;20431;-63
2021/01/26 08:43:48;;;;;;;13.73;7.13;;;6.00;99.90;;;;;;4936193;29;20514;-63
2021/01/26 08:46:42;;;;;;;10.53;6.47;;;6.00;99.90;;;;;;4936281;29;20193;-63
2021/01/26 08:52:31;;;;;;;14.60;7.07;;;6.00;99.90;;;;;;4936094;29;20454;-63
2021/01/26 08:54:56;;;;;;;11.53;7.80;;;6.00;99.90;;;;;;4936387;29;20846;-63
2021/01/26 08:57:28;;;;;;;10.20;6.87;;;6.00;99.90;;;;;;4935912;29;20434;-63
2021/01/26 09:00:17;;;;;;;10.57;7.50;;;6.00;99.90;;;;;;4936268;29;20167;-62
2021/01/26 09:06:07;;;;;;;15.00;7.20;;;6.10;99.90;;;;;;4936123;29;20921;-63
2021/01/26 09:11:58;;;;;;;13.60;8.60;;;6.00;99.90;;;;;;4936029;29;20843;-63
2021/01/26 09:14:44;;;;;;;10.70;7.00;;;6.00;99.90;;;;;;4935900;29;20506;-63
2021/01/26 09:17:24;;;;;;;9.83;7.00;;;6.00;99.90;;;;;;4936145;29;20444;-63
2021/01/26 09:20:05;;;;;;;13.87;7.17;;;6.00;99.90;;;;;;4936180;29;20427;-63
2021/01/26 09:22:32;;;;;;;9.03;6.90;;;6.10;99.90;;;;;;4935876;29;20520;-62
2021/01/26 09:25:15;;;;;;;12.03;7.40;;;6.00;99.90;;;;;;4936141;29;20457;-63
2021/01/26 09:31:04;;;;;;;13.20;7.40;;;6.10;99.90;;;;;;4935830;29;20497;-63
2021/01/26 09:33:30;;;;;;;7.70;6.23;;;6.20;99.90;;;;;;4935236;29;20524;-62
2021/01/26 09:39:19;;;;;;;11.33;8.33;;;6.20;99.90;;;;;;4935825;29;20166;-63
2021/01/26 09:45:09;;;;;;;8.27;6.50;;;6.20;99.90;;;;;;4935814;29;20421;-63
2021/01/26 09:47:36;;;;;;;8.30;6.87;;;6.20;99.90;;;;;;4936000;29;20479;-63
2021/01/26 09:50:05;;;;;;;9.73;7.27;;;6.20;99.90;;;;;;4935932;29;20431;-63
2021/01/26 09:52:31;;;;;;;8.10;6.77;;;6.20;99.90;;;;;;4935494;29;20472;-63
2021/01/26 09:55:10;;;;;;;12.63;7.80;;;6.20;99.90;;;;;;4935961;29;20438;-63
2021/01/26 09:57:36;;;;;;;9.70;8.17;;;6.20;99.90;;;;;;4935957;29;20178;-63
2021/01/26 10:00:11;;;;;;;11.03;7.10;;;6.20;99.90;;;;;;4935935;29;20470;-63
2021/01/26 10:02:37;;;;;;;12.73;7.17;;;6.20;99.90;;;;;;4935887;29;20441;-63
2021/01/26 10:08:28;;;;;;;15.17;8.10;;;6.20;99.90;;;;;;4936992;29;20477;-63
2021/01/26 10:14:26;;;;;;;6.00;3.53;;;6.20;99.90;;;;;;4939140;29;20497;-62
2021/01/26 10:16:54;;;;;;;5.90;4.83;;;6.20;99.90;;;;;;4939118;29;20529;-63
2021/01/26 10:19:31;;;;;;;4.40;3.60;;;6.20;99.90;;;;;;4939191;29;20777;-62
2021/01/26 10:25:23;;;;;;;4.07;2.50;;;6.10;99.90;;;;;;4938731;29;20457;-62
2021/01/26 10:27:49;;;;;;;4.57;3.10;;;6.10;99.90;;;;;;4939006;29;20768;-63
2021/01/26 10:30:16;;;;;;;3.10;2.50;;;6.10;99.90;;;;;;4938598;29;20438;-62
2021/01/26 10:36:28;;;;;;;3.90;2.40;;;6.10;99.90;;;;;;4927771;29;20481;-63
2021/01/26 10:38:55;;;;;;;5.00;2.27;;;6.10;99.90;;;;;;4938812;29;20421;-63
2021/01/26 10:41:28;;;;;;;2.50;2.23;;;6.20;99.90;;;;;;4938311;29;20457;-63
2021/01/26 10:44:07;;;;;;;3.63;2.90;;;6.20;99.90;;;;;;4938715;29;20465;-64
2021/01/26 10:46:41;;;;;;;3.23;2.13;;;6.30;99.90;;;;;;4938556;29;20430;-63
2021/01/26 10:52:47;;;;;;;2.73;2.33;;;6.30;99.90;;;;;;4938191;29;20818;-62
2021/01/26 10:55:19;;;;;;;3.57;2.80;;;6.30;99.90;;;;;;4938381;29;20439;-62
2021/01/26 10:57:45;;;;;;;3.60;2.87;;;6.30;99.90;;;;;;4937843;29;20466;-62
2021/01/26 11:00:14;;;;;;;3.97;3.10;;;6.40;99.90;;;;;;4938293;29;20910;-62
2021/01/26 11:02:40;;;;;;;4.07;2.93;;;6.30;99.90;;;;;;4937885;29;20438;-62
2021/01/26 11:05:08;;;;;;;3.37;3.07;;;6.30;99.90;;;;;;4938267;29;20442;-62
2021/01/26 11:07:34;;;;;;;2.93;2.63;;;6.30;99.90;;;;;;4938066;29;20193;-62
2021/01/26 11:09:59;;;;;;;5.10;3.40;;;6.40;99.90;;;;;;4937886;29;20442;-62
2021/01/26 11:15:47;;;;;;;4.13;3.47;;;6.50;99.90;;;;;;4937707;29;20235;-62
2021/01/26 11:18:13;;;;;;;4.70;4.13;;;6.50;99.90;;;;;;4937803;29;20787;-62
2021/01/26 11:20:39;;;;;;;4.17;3.10;;;6.50;99.90;;;;;;4937418;29;20626;-62
2021/01/26 11:23:06;;;;;;;6.67;4.20;;;6.50;99.90;;;;;;4937824;29;20248;-62
2021/01/26 11:28:54;;;;;;;4.53;4.13;;;6.50;99.90;;;;;;4937744;29;20466;-62
2021/01/26 11:31:21;;;;;;;5.50;4.00;;;6.50;99.90;;;;;;4937397;29;20455;-62
2021/01/26 11:33:47;;;;;;;8.13;5.00;;;6.50;99.90;;;;;;4937463;29;20474;-64
2021/01/26 11:36:13;;;;;;;5.70;3.93;;;6.60;99.90;;;;;;4937018;29;20517;-62
2021/01/26 11:38:39;;;;;;;5.30;3.73;;;6.70;99.90;;;;;;4937308;29;20798;-64
2021/01/26 11:41:05;;;;;;;6.73;4.50;;;6.80;99.90;;;;;;4937446;29;20434;-62
2021/01/26 11:43:32;;;;;;;6.23;4.37;;;6.90;99.90;;;;;;4937149;29;20506;-63
2021/01/26 11:45:58;;;;;;;6.60;4.57;;;7.10;99.90;;;;;;4937428;29;20435;-62
2021/01/26 11:48:25;;;;;;;5.87;4.30;;;7.20;99.90;;;;;;4937316;29;20426;-63
2021/01/26 11:50:51;;;;;;;5.60;4.47;;;7.30;99.90;;;;;;4937371;29;20261;-62
2021/01/26 11:53:17;;;;;;;5.03;4.27;;;7.40;99.90;;;;;;4937246;29;21061;-62
2021/01/26 11:59:05;;;;;;;6.50;4.33;;;7.30;99.90;;;;;;4936981;29;20519;-66
2021/01/26 12:01:30;;;;;;;6.53;4.30;;;7.30;99.90;;;;;;4937075;29;20526;-66
2021/01/26 12:07:18;;;;;;;8.60;5.10;;;7.20;99.90;;;;;;4936799;29;20219;-66
2021/01/26 12:09:43;;;;;;;6.20;5.60;;;7.20;99.90;;;;;;4937006;29;20435;-66
2021/01/26 12:15:36;;;;;;;8.13;6.70;;;7.10;99.90;;;;;;4936811;29;20178;-66
2021/01/26 12:21:23;;;;;;;8.90;5.70;;;7.20;99.90;;;;;;4936652;29;20788;-66
2021/01/26 12:23:48;;;;;;;6.90;6.20;;;7.20;99.90;;;;;;4936577;29;20438;-65
2021/01/26 12:29:36;;;;;;;10.93;5.97;;;7.20;99.90;;;;;;4936515;29;20190;-65
2021/01/26 12:32:02;;;;;;;8.03;5.87;;;7.20;99.90;;;;;;4935925;29;20454;-67
2021/01/26 12:34:27;;;;;;;7.70;5.90;;;7.20;99.90;;;;;;4935665;29;20576;-65
2021/01/26 12:36:54;;;;;;;7.57;6.07;;;7.20;99.90;;;;;;4936176;29;20226;-67
2021/01/26 12:42:42;;;;;;;9.77;5.87;;;7.30;99.90;;;;;;4936399;29;20779;-66
2021/01/26 12:45:10;;;;;;;7.73;4.43;;;7.40;99.90;;;;;;4936574;29;20515;-66
2021/01/26 12:47:36;;;;;;;6.87;4.77;;;7.40;99.90;;;;;;4936116;29;20531;-66
2021/01/26 12:50:04;;;;;;;6.10;5.27;;;7.30;99.90;;;;;;4936523;29;20506;-66
2021/01/26 12:55:52;;;;;;;3.37;2.87;;;7.30;99.90;;;;;;4936109;29;20913;-65
2021/01/26 12:58:18;;;;;;;3.63;3.03;;;7.30;99.90;;;;;;4936461;29;20419;-65
2021/01/26 13:00:43;;;;;;;10.13;3.60;;;7.30;99.90;;;;;;4936390;29;20587;-66
2021/01/26 13:03:09;;;;;;;3.23;2.93;;;7.30;99.90;;;;;;4936192;29;20537;-65
2021/01/26 13:05:34;;;;;;;5.23;3.90;;;7.30;99.90;;;;;;4936386;29;20179;-66
2021/01/26 13:08:00;;;;;;;6.10;4.60;;;7.30;99.90;;;;;;4936352;29;20182;-66
2021/01/26 13:10:26;;;;;;;6.73;4.80;;;7.30;99.90;;;;;;4936234;29;20192;-66
2021/01/26 13:16:14;;;;;;;6.40;5.30;;;7.30;99.90;;;;;;4936034;29;20173;-65
2021/01/26 13:18:39;;;;;;;6.20;4.63;;;7.20;99.90;;;;;;4935997;29;20522;-65
2021/01/26 13:21:06;;;;;;;5.43;4.90;;;7.30;99.90;;;;;;4936186;29;20175;-65
2021/01/26 13:23:31;;;;;;;8.23;5.87;;;7.20;99.90;;;;;;4936109;29;20183;-64
2021/01/26 13:29:19;;;;;;;8.60;7.10;;;7.20;99.90;;;;;;4935778;29;20175;-66
2021/01/26 13:35:10;;;;;;;9.67;7.97;;;7.20;99.90;;;;;;4935545;29;20657;-66
2021/01/26 13:37:37;;;;;;;10.80;8.00;;;7.20;99.90;;;;;;4936166;29;20442;-66
2021/01/26 13:40:05;;;;;;;13.20;8.83;;;7.30;99.90;;;;;;4936066;29;20518;-66
2021/01/26 13:42:31;;;;;;;9.40;8.00;;;7.40;99.90;;;;;;4937334;29;20433;-66
2021/01/26 13:48:18;;;;;;;8.70;7.40;;;7.60;99.90;;;;;;4939480;29;20169;-66
2021/01/26 13:50:43;;;;;;;13.50;8.27;;;7.60;99.90;;;;;;4939580;29;20903;-66
2021/01/26 13:56:32;;;;;;;12.87;7.50;;;7.50;99.90;;;;;;4939209;29;20214;-65
2021/01/26 14:02:19;;;;;;;7.77;6.80;;;7.50;99.90;;;;;;4939198;29;20406;-66
2021/01/26 14:08:07;;;;;;;9.20;7.50;;;7.50;99.90;;;;;;4938934;29;20592;-66
2021/01/26 14:10:35;;;;;;;11.87;8.47;;;7.50;99.90;;;;;;4938966;29;20423;-65
2021/01/26 14:16:22;;;;;;;11.80;7.73;;;7.50;99.90;;;;;;4938733;29;20445;-65
2021/01/26 14:22:10;;;;;;;9.17;8.27;;;7.50;99.90;;;;;;4938719;29;20237;-65
2021/01/26 14:27:57;;;;;;;11.47;8.10;;;7.40;99.90;;;;;;4938697;29;20527;-65
2021/01/26 14:30:24;;;;;;;11.00;9.70;;;7.40;99.90;;;;;;4938848;29;20450;-65
2021/01/26 14:32:49;;;;;;;16.90;11.10;;;7.30;99.90;;;;;;4938735;29;20207;-65
2021/01/26 14:35:19;;;;;;;10.67;9.57;;;7.30;99.90;;;;;;4938551;29;20804;-65
2021/01/26 14:37:44;;;;;;;11.63;8.87;;;7.30;99.90;;;;;;4938776;29;20181;-65
2021/01/26 14:40:11;;;;;;;11.37;9.00;;;7.20;99.90;;;;;;4938568;29;20427;-65
2021/01/26 14:45:59;;;;;;;13.97;10.80;;;7.20;99.90;;;;;;4938609;29;20406;-65
2021/01/26 14:51:46;;;;;;;17.77;11.30;;;7.10;99.90;;;;;;4938278;29;20426;-65
2021/01/26 14:57:33;;;;;;;10.83;8.63;;;7.10;99.90;;;;;;4938028;29;20203;-66
2021/01/26 14:59:59;;;;;;;18.47;9.33;;;7.10;99.90;;;;;;4937668;29;20419;-65
2021/01/26 15:02:25;;;;;;;11.30;8.30;;;7.10;99.90;;;;;;4938201;29;20218;-66
2021/01/26 15:04:50;;;;;;;14.70;10.30;;;7.10;99.90;;;;;;4938718;29;20179;-66
2021/01/26 15:10:38;;;;;;;13.30;8.20;;;7.10;99.90;;;;;;4937807;29;20171;-64
2021/01/26 15:16:25;;;;;;;12.20;7.80;;;7.10;99.90;;;;;;4937575;29;20459;-65
2021/01/26 15:22:13;;;;;;;6.80;5.30;;;7.20;99.90;;;;;;4937561;29;20174;-64
2021/01/26 15:24:39;;;;;;;10.23;6.50;;;7.20;99.90;;;;;;4937724;29;20427;-65
2021/01/26 15:27:05;;;;;;;9.53;6.67;;;7.10;99.90;;;;;;4937797;29;20238;-65
2021/01/26 15:29:31;;;;;;;11.63;6.20;;;7.20;99.90;;;;;;4937369;29;20961;-65
2021/01/26 15:31:58;;;;;;;8.07;5.77;;;7.10;99.90;;;;;;4937658;29;20494;-65
2021/01/26 15:34:24;;;;;;;8.37;5.70;;;7.10;99.90;;;;;;4937138;29;20207;-64
2021/01/26 15:36:49;;;;;;;6.30;5.27;;;7.10;99.90;;;;;;4937083;29;21017;-65
2021/01/26 15:39:16;;;;;;;6.57;4.83;;;7.10;99.90;;;;;;4937273;29;20227;-65
2021/01/26 15:41:42;;;;;;;9.40;5.80;;;7.10;99.90;;;;;;4937445;29;20178;-65
2021/01/26 15:44:08;;;;;;;9.23;5.53;;;7.10;99.90;;;;;;4937541;29;20431;-65
2021/01/26 15:46:34;;;;;;;6.80;5.30;;;7.10;99.90;;;;;;4937190;29;20623;-65
2021/01/26 15:52:21;;;;;;;7.87;4.53;;;7.00;99.90;;;;;;4937081;29;20171;-65
2021/01/26 15:54:46;;;;;;;7.80;4.50;;;7.00;99.90;;;;;;4937354;29;20513;-65
2021/01/26 15:57:12;;;;;;;11.97;5.90;;;7.00;99.90;;;;;;4937289;29;20663;-75
2021/01/26 15:59:37;;;;;;;8.10;5.60;;;7.00;99.90;;;;;;4937134;29;20226;-76
2021/01/26 16:02:03;;;;;;;13.73;6.97;;;7.20;99.90;;;;;;4937217;29;20583;-75
2021/01/26 16:04:29;;;;;;;6.27;5.33;;;7.20;99.90;;;;;;4936783;29;20246;-75
2021/01/26 16:06:54;;;;;;;5.97;4.83;;;7.30;99.90;;;;;;4936525;29;20182;-75
2021/01/26 16:09:21;;;;;;;14.37;6.43;;;7.50;99.90;;;;;;4936537;29;20171;-75
2021/01/26 16:15:11;;;;;;;8.63;4.80;;;7.60;99.90;;;;;;4936572;29;20458;-75
2021/01/26 16:17:37;;;;;;;9.27;5.73;;;7.50;99.90;;;;;;4936439;29;20437;-75
2021/01/26 16:20:03;;;;;;;9.70;5.10;;;7.50;99.90;;;;;;4936657;29;20449;-75
2021/01/26 16:22:28;;;;;;;12.40;5.47;;;7.40;99.90;;;;;;4936528;29;20542;-75
2021/01/26 16:24:54;;;;;;;6.87;4.73;;;7.40;99.90;;;;;;4936658;29;20438;-76
2021/01/26 16:27:20;;;;;;;9.93;5.90;;;7.30;99.90;;;;;;4936514;29;20263;-75
2021/01/26 16:29:48;;;;;;;11.93;6.80;;;7.30;99.90;;;;;;4936733;29;20187;-76
2021/01/26 16:32:14;;;;;;;9.30;7.23;;;7.10;99.90;;;;;;4935646;29;20452;-76
2021/01/26 16:34:40;;;;;;;14.53;6.47;;;7.10;99.90;;;;;;4936578;29;20492;-76
2021/01/26 16:37:06;;;;;;;10.07;6.40;;;7.20;99.90;;;;;;4936361;29;20991;-67
2021/01/26 16:42:53;;;;;;;8.67;6.93;;;7.10;99.90;;;;;;4936224;29;20175;-66
2021/01/26 16:48:41;;;;;;;7.50;6.73;;;7.10;99.90;;;;;;4936320;29;20823;-65
2021/01/26 16:51:06;;;;;;;8.93;6.57;;;7.00;99.90;;;;;;4936193;29;20431;-64
2021/01/26 16:53:32;;;;;;;6.40;5.80;;;6.90;99.90;;;;;;4936328;29;20218;-64
2021/01/26 16:59:19;;;;;;;8.00;6.27;;;6.80;99.90;;;;;;4936162;29;20243;-66
2021/01/26 17:01:45;;;;;;;16.43;7.67;;;6.80;99.90;;;;;;4936079;29;20954;-65
2021/01/26 17:04:10;;;;;;;9.63;7.80;;;6.80;99.90;;;;;;4936239;29;20189;-65
2021/01/26 17:09:58;;;;;;;10.77;6.87;;;6.80;99.90;;;;;;4935953;29;20263;-66
2021/01/26 17:12:23;;;;;;;13.30;8.00;;;6.80;99.90;;;;;;4935871;29;20461;-66
2021/01/26 17:14:49;;;;;;;13.13;10.90;;;6.70;99.90;;;;;;4936194;29;20183;-66
2021/01/26 17:17:14;;;;;;;10.33;7.93;;;6.70;99.90;;;;;;4937248;29;20194;-66
2021/01/26 17:19:41;;;;;;;47.70;36.87;;;6.80;99.90;;;;;;4939878;29;20516;-66
2021/01/26 17:25:29;;;;;;;24.23;17.87;;;6.70;99.90;;;;;;4939799;29;20402;-67
2021/01/26 17:31:16;;;;;;;12.33;8.60;;;6.70;99.90;;;;;;4939642;29;20166;-66
2021/01/26 17:37:05;;;;;;;18.87;9.63;;;6.80;99.90;;;;;;4929777;29;20237;-66
2021/01/26 17:42:52;;;;;;;18.77;10.63;;;6.60;99.90;;;;;;4939412;29;20414;-64
2021/01/26 17:48:40;;;;;;;16.43;9.37;;;6.50;99.90;;;;;;4939357;29;20215;-65
2021/01/26 17:54:27;;;;;;;16.73;9.60;;;6.50;99.90;;;;;;4939111;29;20209;-65
2021/01/26 17:56:53;;;;;;;14.23;9.10;;;6.50;99.90;;;;;;4939063;29;20434;-68
2021/01/26 18:02:40;;;;;;;12.17;9.67;;;6.60;99.90;;;;;;4939052;29;20166;-68
2021/01/26 18:05:07;;;;;;;11.50;8.90;;;6.70;99.90;;;;;;4938913;29;20423;-67
2021/01/26 18:07:33;;;;;;;20.87;8.90;;;6.70;99.90;;;;;;4939381;29;20179;-66
2021/01/26 18:09:58;;;;;;;10.70;8.33;;;6.60;99.90;;;;;;4939133;29;20435;-72
2021/01/26 18:12:24;;;;;;;13.83;8.60;;;6.60;99.90;;;;;;4939088;29;20175;-71
2021/01/26 18:14:50;;;;;;;20.43;11.00;;;6.60;99.90;;;;;;4939111;29;20187;-70
2021/01/26 18:17:15;;;;;;;14.80;10.60;;;6.50;99.90;;;;;;4938829;29;20171;-70
2021/01/26 18:19:41;;;;;;;12.47;9.13;;;6.50;99.90;;;;;;4938707;29;20538;-70
2021/01/26 18:22:06;;;;;;;16.37;10.53;;;6.50;99.90;;;;;;4937416;29;20201;-70
2021/01/26 18:24:32;;;;;;;14.03;10.67;;;6.40;99.90;;;;;;4938874;29;20182;-72
2021/01/26 18:26:57;;;;;;;16.37;10.40;;;6.50;99.90;;;;;;4938823;29;20183;-71
2021/01/26 18:29:27;;;;;;;21.13;12.30;;;6.50;99.90;;;;;;4937630;29;20183;-72
2021/01/26 18:35:21;;;;;;;14.53;10.30;;;6.40;99.90;;;;;;4938383;29;20478;-70
2021/01/26 18:37:47;;;;;;;14.80;10.60;;;6.40;99.90;;;;;;4938398;29;20480;-70
2021/01/26 18:40:14;;;;;;;18.47;10.40;;;6.40;99.90;;;;;;4938614;29;20543;-72
2021/01/26 18:42:40;;;;;;;13.97;11.90;;;6.40;99.90;;;;;;4938512;29;20439;-72
2021/01/26 18:45:07;;;;;;;20.20;10.03;;;6.40;99.90;;;;;;4938246;29;20465;-69
2021/01/26 18:47:34;;;;;;;11.57;10.13;;;6.40;99.90;;;;;;4938559;29;20183;-72
2021/01/26 18:53:22;;;;;;;13.43;9.80;;;6.20;99.90;;;;;;4938200;29;20870;-70
2021/01/26 18:55:48;;;;;;;21.83;10.30;;;6.20;99.90;;;;;;4938163;29;20419;-71
2021/01/26 18:58:14;;;;;;;14.10;9.80;;;6.30;99.90;;;;;;4938165;29;20183;-69
2021/01/26 19:00:40;;;;;;;14.57;9.50;;;6.20;99.90;;;;;;4938080;29;20187;-72
2021/01/26 19:03:05;;;;;;;13.97;11.90;;;6.20;99.90;;;;;;4938263;29;20853;-71
2021/01/26 19:05:31;;;;;;;18.80;11.33;;;6.10;99.90;;;;;;4938166;29;20474;-71
2021/01/26 19:07:57;;;;;;;16.50;12.83;;;6.00;99.90;;;;;;4938177;29;20182;-71
2021/01/26 19:13:44;;;;;;;15.30;11.07;;;6.00;99.90;;;;;;4937757;29;20217;-71
2021/01/26 19:16:11;;;;;;;15.83;10.90;;;5.90;99.90;;;;;;4937815;29;20553;-71
2021/01/26 19:21:59;;;;;;;26.77;11.90;;;5.90;99.90;;;;;;4937647;29;20428;-71
2021/01/26 19:24:26;;;;;;;17.53;9.70;;;5.90;99.90;;;;;;4937864;29;20437;-71
2021/01/26 19:26:52;;;;;;;17.80;10.77;;;6.00;99.90;;;;;;4937760;29;20175;-71
2021/01/26 19:29:19;;;;;;;14.23;9.73;;;6.00;99.90;;;;;;4937711;29;20423;-71
2021/01/26 19:35:09;;;;;;;12.03;8.97;;;5.90;99.90;;;;;;4937202;29;20478;-71
2021/01/26 19:37:34;;;;;;;15.63;9.93;;;5.80;99.90;;;;;;4937042;29;20584;-71
2021/01/26 19:40:00;;;;;;;15.90;8.93;;;5.80;99.90;;;;;;4937227;29;20501;-71
2021/01/26 19:42:26;;;;;;;12.60;9.00;;;5.70;99.90;;;;;;4937554;29;20544;-71
2021/01/26 19:44:52;;;;;;;13.37;10.50;;;5.70;99.90;;;;;;4937466;29;20252;-72
2021/01/26 19:47:18;;;;;;;16.03;9.03;;;5.70;99.90;;;;;;4937409;29;20196;-72
2021/01/26 19:49:46;;;;;;;15.90;10.30;;;5.70;99.90;;;;;;4937408;29;20910;-71
2021/01/26 19:52:13;;;;;;;14.33;9.63;;;5.70;99.90;;;;;;4937334;29;20208;-68
2021/01/26 19:54:38;;;;;;;16.60;11.17;;;5.60;99.90;;;;;;4937187;29;20525;-69
2021/01/26 19:57:05;;;;;;;15.77;10.13;;;5.70;99.90;;;;;;4937818;29;20808;-69
2021/01/26 20:02:53;;;;;;;11.83;8.73;;;5.70;99.90;;;;;;4936927;29;20517;-68
2021/01/26 20:05:22;;;;;;;14.43;11.20;;;5.50;99.90;;;;;;4935645;29;20930;-69
2021/01/26 20:07:48;;;;;;;16.33;10.40;;;5.50;99.90;;;;;;4937089;29;20843;-69
2021/01/26 20:10:18;;;;;;;19.77;10.10;;;5.50;99.90;;;;;;4936995;29;20461;-68
2021/01/26 20:12:45;;;;;;;18.47;11.17;;;5.50;99.90;;;;;;4936961;29;20292;-69
2021/01/26 20:18:32;;;;;;;14.57;10.47;;;5.50;99.90;;;;;;4936678;29;20410;-69
2021/01/26 20:20:58;;;;;;;18.37;10.20;;;5.40;99.90;;;;;;4936824;29;20427;-68
2021/01/26 20:26:45;;;;;;;15.80;10.77;;;5.50;99.90;;;;;;4936527;29;20210;-72
2021/01/26 20:29:11;;;;;;;18.53;11.20;;;5.50;99.90;;;;;;4936668;29;20518;-72
2021/01/26 20:31:36;;;;;;;16.03;9.90;;;5.50;99.90;;;;;;4936637;29;20260;-72
2021/01/26 20:34:02;;;;;;;18.03;11.47;;;5.50;99.90;;;;;;4936223;29;20218;-71
2021/01/26 20:40:12;;;;;;;22.57;10.30;;;5.40;99.90;;;;;;4928113;29;20233;-72
2021/01/26 20:45:59;;;;;;;22.40;11.70;;;5.40;99.90;;;;;;4936230;29;20426;-71
2021/01/26 20:51:47;;;;;;;16.03;12.13;;;5.50;99.90;;;;;;4935560;29;20181;-71
2021/01/26 20:54:13;;;;;;;19.50;13.03;;;5.40;99.90;;;;;;4936337;29;20484;-72